Time;durP1;ratioP1;P1;durP2;ratioP2;P2;SDS_P1;SDS_P2;PMS_P1;PMS_P2;Temp;Humidity;BMP_temperature;BMP_pressure;BME280_temperature;BME280_humidity;BME280_pressure;Samples;Min_cycle;Max_cycle;Signal;HPM_P1;HPM_P2
2023/12/21 00:06:39;;;;;;;66.55;48.58;;;;;;;;;;4997353;28;20061;-61
2023/12/21 00:09:08;;;;;;;61.67;47.42;;;;;;;;;;5008845;28;20057;-58
2023/12/21 00:11:34;;;;;;;65.77;50.53;;;;;;;;;;5011371;28;20381;-58
2023/12/21 00:14:00;;;;;;;65.10;48.58;;;;;;;;;;5011247;28;20040;-56
2023/12/21 00:16:26;;;;;;;62.65;51.45;;;;;;;;;;5011323;28;20033;-58
2023/12/21 00:18:53;;;;;;;60.72;48.45;;;;;;;;;;5011249;28;20026;-59
2023/12/21 00:21:19;;;;;;;70.50;50.53;;;;;;;;;;5011199;28;20072;-58
2023/12/21 00:23:45;;;;;;;61.15;49.63;;;;;;;;;;5011071;28;20050;-58
2023/12/21 00:26:11;;;;;;;68.45;49.67;;;;;;;;;;5011252;28;20030;-56
2023/12/21 00:28:37;;;;;;;65.32;49.30;;;;;;;;;;5008087;28;20082;-58
2023/12/21 00:31:03;;;;;;;65.75;47.70;;;;;;;;;;4999702;28;20392;-56
2023/12/21 00:33:29;;;;;;;62.10;48.00;;;;;;;;;;5009190;28;20030;-58
2023/12/21 00:35:55;;;;;;;63.33;48.33;;;;;;;;;;5012342;28;20049;-59
2023/12/21 00:38:21;;;;;;;60.13;47.08;;;;;;;;;;5014277;28;20029;-57
2023/12/21 00:40:47;;;;;;;64.00;49.15;;;;;;;;;;5014869;28;20112;-58
2023/12/21 00:43:13;;;;;;;61.33;48.87;;;;;;;;;;5014610;28;20029;-56
2023/12/21 00:45:39;;;;;;;63.55;50.65;;;;;;;;;;5010515;28;20171;-57
2023/12/21 00:48:05;;;;;;;61.33;49.97;;;;;;;;;;5013304;28;20030;-57
2023/12/21 00:50:31;;;;;;;60.13;47.43;;;;;;;;;;5014683;28;20368;-57
2023/12/21 00:52:57;;;;;;;64.30;48.17;;;;;;;;;;5014505;28;20030;-58
2023/12/21 00:55:23;;;;;;;60.50;47.50;;;;;;;;;;5009388;28;20034;-56
2023/12/21 00:57:49;;;;;;;60.78;50.00;;;;;;;;;;5014153;28;20140;-55
2023/12/21 01:00:15;;;;;;;65.85;48.42;;;;;;;;;;5014275;28;20108;-58
2023/12/21 01:02:41;;;;;;;65.28;50.53;;;;;;;;;;5023478;28;20034;-58
2023/12/21 01:05:07;;;;;;;59.57;49.23;;;;;;;;;;5014185;28;20045;-56
2023/12/21 01:07:33;;;;;;;61.50;48.83;;;;;;;;;;5013895;28;20109;-57
2023/12/21 01:09:59;;;;;;;61.50;48.05;;;;;;;;;;5013881;28;20113;-53
2023/12/21 01:12:25;;;;;;;67.30;49.63;;;;;;;;;;5014225;28;20018;-56
2023/12/21 01:14:51;;;;;;;64.13;51.63;;;;;;;;;;5013690;28;20373;-55
2023/12/21 01:17:17;;;;;;;63.63;50.97;;;;;;;;;;5012227;28;20041;-56
2023/12/21 01:19:43;;;;;;;67.85;52.25;;;;;;;;;;5003854;28;20499;-55
2023/12/21 01:22:09;;;;;;;64.57;50.33;;;;;;;;;;5013800;28;20022;-55
2023/12/21 01:24:35;;;;;;;63.10;52.22;;;;;;;;;;5013546;28;20108;-56
2023/12/21 01:27:01;;;;;;;65.93;50.05;;;;;;;;;;5004812;28;20018;-56
2023/12/21 01:29:27;;;;;;;62.55;48.25;;;;;;;;;;5013579;28;20022;-57
2023/12/21 01:31:53;;;;;;;66.03;50.03;;;;;;;;;;5012758;28;20041;-58
2023/12/21 01:34:19;;;;;;;66.22;49.00;;;;;;;;;;5013647;28;20042;-58
2023/12/21 01:36:45;;;;;;;64.03;47.70;;;;;;;;;;5011926;28;20435;-58
2023/12/21 01:39:11;;;;;;;61.90;46.63;;;;;;;;;;5012211;28;20026;-58
2023/12/21 01:41:37;;;;;;;61.33;48.08;;;;;;;;;;5030349;28;20073;-56
2023/12/21 01:44:03;;;;;;;61.67;47.47;;;;;;;;;;5013692;28;20029;-58
2023/12/21 01:46:30;;;;;;;61.43;47.73;;;;;;;;;;5012463;28;20483;-57
2023/12/21 01:49:07;;;;;;;63.90;47.33;;;;;;;;;;5012973;28;20037;-57
2023/12/21 01:51:33;;;;;;;62.03;47.67;;;;;;;;;;5012577;28;20341;-58
2023/12/21 01:54:02;;;;;;;65.57;47.38;;;;;;;;;;5004105;28;20419;-58
2023/12/21 01:56:28;;;;;;;63.08;46.25;;;;;;;;;;5012896;28;20467;-59
2023/12/21 01:58:54;;;;;;;68.83;48.97;;;;;;;;;;5013090;28;20030;-58
2023/12/21 02:01:20;;;;;;;66.93;49.67;;;;;;;;;;5012607;28;20104;-57
2023/12/21 02:03:46;;;;;;;68.28;52.15;;;;;;;;;;5013166;28;20030;-57
2023/12/21 02:06:12;;;;;;;64.90;48.08;;;;;;;;;;5013052;28;20031;-57
2023/12/21 02:08:38;;;;;;;70.37;50.10;;;;;;;;;;5013899;28;20026;-58
2023/12/21 02:11:08;;;;;;;68.40;50.03;;;;;;;;;;5003887;28;20407;-59
2023/12/21 02:13:35;;;;;;;60.37;48.97;;;;;;;;;;5012126;28;20042;-58
2023/12/21 02:16:05;;;;;;;63.00;50.10;;;;;;;;;;5010171;28;20029;-57
2023/12/21 02:18:31;;;;;;;65.87;50.10;;;;;;;;;;5009830;28;20036;-58
2023/12/21 02:20:58;;;;;;;66.03;50.80;;;;;;;;;;5020854;28;20025;-58
2023/12/21 02:23:26;;;;;;;65.77;48.47;;;;;;;;;;5027409;28;20084;-58
2023/12/21 02:25:52;;;;;;;61.97;48.27;;;;;;;;;;5020866;28;20488;-59
2023/12/21 02:28:18;;;;;;;63.63;48.77;;;;;;;;;;5024090;28;20017;-57
2023/12/21 02:30:46;;;;;;;66.50;50.03;;;;;;;;;;5016277;28;20107;-58
2023/12/21 02:33:12;;;;;;;62.85;48.85;;;;;;;;;;5012194;28;20046;-58
2023/12/21 02:35:38;;;;;;;64.10;48.25;;;;;;;;;;5007832;28;20169;-59
2023/12/21 02:38:04;;;;;;;63.40;49.90;;;;;;;;;;5012771;28;20022;-57
2023/12/21 02:40:30;;;;;;;66.33;49.80;;;;;;;;;;5026481;28;20482;-58
2023/12/21 02:42:56;;;;;;;64.90;48.73;;;;;;;;;;5011031;28;20080;-59
2023/12/21 02:45:22;;;;;;;60.83;49.17;;;;;;;;;;5010360;28;20058;-58
2023/12/21 02:47:48;;;;;;;66.40;50.40;;;;;;;;;;5012286;28;20467;-57
2023/12/21 02:50:14;;;;;;;66.50;51.33;;;;;;;;;;5012280;28;20156;-59
2023/12/21 02:52:40;;;;;;;68.90;50.77;;;;;;;;;;5011971;28;20072;-59
2023/12/21 02:55:06;;;;;;;65.88;48.55;;;;;;;;;;5009681;28;20214;-58
2023/12/21 02:57:32;;;;;;;60.58;47.90;;;;;;;;;;5018968;28;20033;-57
2023/12/21 02:59:58;;;;;;;70.47;49.73;;;;;;;;;;5010756;28;20022;-55
2023/12/21 03:02:24;;;;;;;67.38;49.03;;;;;;;;;;5010771;28;20022;-57
2023/12/21 03:04:50;;;;;;;67.40;48.15;;;;;;;;;;5006579;28;20407;-56
2023/12/21 03:07:16;;;;;;;61.57;47.20;;;;;;;;;;5010894;28;20022;-57
2023/12/21 03:09:42;;;;;;;64.53;47.57;;;;;;;;;;5011123;28;20392;-57
2023/12/21 03:12:08;;;;;;;60.30;48.23;;;;;;;;;;5010496;28;20033;-56
2023/12/21 03:14:34;;;;;;;63.13;48.27;;;;;;;;;;5011749;28;20521;-58
2023/12/21 03:17:00;;;;;;;64.13;47.93;;;;;;;;;;5011074;28;20109;-58
2023/12/21 03:19:26;;;;;;;65.07;45.40;;;;;;;;;;5012191;28;20141;-58
2023/12/21 03:21:52;;;;;;;63.17;47.13;;;;;;;;;;5010449;28;20156;-58
2023/12/21 03:24:18;;;;;;;62.38;47.58;;;;;;;;;;5011614;28;20066;-58
2023/12/21 03:26:46;;;;;;;61.60;47.50;;;;;;;;;;5011232;28;20025;-58
2023/12/21 03:29:12;;;;;;;64.93;50.00;;;;;;;;;;5011813;28;20071;-57
2023/12/21 03:31:38;;;;;;;61.63;47.70;;;;;;;;;;5018357;28;20049;-59
2023/12/21 03:34:04;;;;;;;63.63;48.07;;;;;;;;;;5008176;28;20034;-59
2023/12/21 03:36:31;;;;;;;61.67;46.20;;;;;;;;;;5004946;28;20539;-59
2023/12/21 03:38:59;;;;;;;63.00;47.00;;;;;;;;;;5011723;28;20045;-57
2023/12/21 03:41:25;;;;;;;56.90;46.33;;;;;;;;;;5011567;28;20042;-57
2023/12/21 03:43:51;;;;;;;59.57;47.73;;;;;;;;;;5011654;28;20105;-58
2023/12/21 03:46:17;;;;;;;61.60;45.73;;;;;;;;;;5011918;28;20045;-57
2023/12/21 03:48:43;;;;;;;58.80;45.60;;;;;;;;;;5008400;28;20480;-58
2023/12/21 03:51:09;;;;;;;60.57;44.90;;;;;;;;;;5005208;28;20041;-58
2023/12/21 03:53:35;;;;;;;55.45;43.92;;;;;;;;;;5006514;28;20034;-58
2023/12/21 03:56:01;;;;;;;53.17;42.38;;;;;;;;;;5011645;28;20080;-59
2023/12/21 03:58:27;;;;;;;53.50;42.30;;;;;;;;;;5006237;28;20030;-58
2023/12/21 04:00:58;;;;;;;58.03;44.27;;;;;;;;;;5010655;28;20037;-57
2023/12/21 04:03:24;;;;;;;57.65;46.20;;;;;;;;;;5011564;28;20416;-59
2023/12/21 04:05:50;;;;;;;59.17;44.80;;;;;;;;;;5011324;28;20060;-57
2023/12/21 04:08:21;;;;;;;58.70;44.27;;;;;;;;;;5009158;28;20025;-58
2023/12/21 04:10:47;;;;;;;55.23;44.70;;;;;;;;;;5013460;28;20072;-58
2023/12/21 04:13:12;;;;;;;57.87;44.63;;;;;;;;;;5010702;28;20488;-56
2023/12/21 04:15:38;;;;;;;61.03;47.00;;;;;;;;;;5009887;28;20018;-58
2023/12/21 04:18:04;;;;;;;55.43;44.30;;;;;;;;;;5014429;28;20152;-58
2023/12/21 04:20:30;;;;;;;60.33;46.53;;;;;;;;;;5015953;28;20442;-58
2023/12/21 04:22:56;;;;;;;59.43;45.77;;;;;;;;;;5016056;28;20121;-57
2023/12/21 04:25:22;;;;;;;58.77;47.20;;;;;;;;;;5008499;28;20046;-57
2023/12/21 04:27:48;;;;;;;56.70;45.87;;;;;;;;;;5011597;28;20140;-57
2023/12/21 04:30:14;;;;;;;59.67;47.47;;;;;;;;;;5009867;28;20022;-58
2023/12/21 04:32:41;;;;;;;58.40;48.07;;;;;;;;;;5014802;28;20098;-58
2023/12/21 04:35:09;;;;;;;61.33;46.40;;;;;;;;;;5014769;28;20045;-59
2023/12/21 04:37:35;;;;;;;57.50;45.83;;;;;;;;;;5013349;28;20037;-56
2023/12/21 04:40:01;;;;;;;56.07;45.73;;;;;;;;;;5014409;28;20087;-58
2023/12/21 04:42:27;;;;;;;54.77;45.23;;;;;;;;;;5012683;28;20129;-57
2023/12/21 04:44:53;;;;;;;55.70;45.50;;;;;;;;;;5014418;28;20030;-54
2023/12/21 04:47:19;;;;;;;59.27;44.63;;;;;;;;;;5014263;28;20026;-57
2023/12/21 04:49:45;;;;;;;52.97;44.70;;;;;;;;;;5014584;28;20490;-57
2023/12/21 04:52:11;;;;;;;57.67;45.73;;;;;;;;;;5014523;28;20105;-58
2023/12/21 04:54:37;;;;;;;53.60;44.23;;;;;;;;;;5014389;28;20030;-58
2023/12/21 04:57:03;;;;;;;54.73;45.30;;;;;;;;;;5014120;28;20091;-57
2023/12/21 04:59:29;;;;;;;55.13;45.40;;;;;;;;;;5010734;28;20025;-57
2023/12/21 05:01:56;;;;;;;54.27;44.73;;;;;;;;;;5012801;28;20033;-57
2023/12/21 05:04:22;;;;;;;55.97;45.13;;;;;;;;;;5011550;28;20042;-58
2023/12/21 05:06:48;;;;;;;56.13;46.67;;;;;;;;;;5013770;28;20068;-57
2023/12/21 05:09:14;;;;;;;55.53;45.33;;;;;;;;;;5012939;28;20026;-54
2023/12/21 05:11:40;;;;;;;55.23;45.63;;;;;;;;;;5014269;28;20046;-58
2023/12/21 05:14:06;;;;;;;62.67;46.00;;;;;;;;;;5007318;28;20489;-57
2023/12/21 05:16:32;;;;;;;58.33;46.73;;;;;;;;;;5012211;28;20036;-58
2023/12/21 05:18:58;;;;;;;57.17;45.73;;;;;;;;;;5013280;28;20356;-59
2023/12/21 05:21:24;;;;;;;51.43;43.93;;;;;;;;;;5013786;28;20088;-56
2023/12/21 05:23:50;;;;;;;54.47;43.77;;;;;;;;;;5013656;28;20042;-57
2023/12/21 05:26:16;;;;;;;57.30;45.80;;;;;;;;;;5013413;28;20033;-58
2023/12/21 05:28:42;;;;;;;54.77;46.03;;;;;;;;;;5012170;28;20076;-57
2023/12/21 05:31:08;;;;;;;54.23;46.13;;;;;;;;;;5025762;28;20042;-58
2023/12/21 05:33:35;;;;;;;58.07;46.87;;;;;;;;;;5011469;28;20057;-56
2023/12/21 05:39:24;;;;;;;58.53;46.30;;;;;;;;;;5004674;28;20660;-54
2023/12/21 05:41:50;;;;;;;49.85;44.42;;;;;;;;;;5002036;28;20077;-57
2023/12/21 05:44:16;;;;;;;51.23;45.47;;;;;;;;;;5013289;28;20061;-56
2023/12/21 05:46:42;;;;;;;51.93;44.93;;;;;;;;;;5011987;28;20061;-57
2023/12/21 05:49:08;;;;;;;50.73;44.50;;;;;;;;;;5013777;28;20056;-58
2023/12/21 05:51:34;;;;;;;54.43;44.20;;;;;;;;;;5008929;28;20045;-57
2023/12/21 05:54:00;;;;;;;55.33;46.60;;;;;;;;;;5009956;28;20037;-58
2023/12/21 05:56:27;;;;;;;59.57;48.50;;;;;;;;;;5010325;28;20145;-57
2023/12/21 05:58:53;;;;;;;59.03;47.07;;;;;;;;;;5012787;28;20377;-55
2023/12/21 06:01:19;;;;;;;56.93;46.80;;;;;;;;;;5011492;28;20089;-55
2023/12/21 06:03:45;;;;;;;56.87;47.80;;;;;;;;;;5012875;28;20026;-57
2023/12/21 06:06:13;;;;;;;59.10;49.03;;;;;;;;;;5011224;28;20046;-57
2023/12/21 06:08:39;;;;;;;55.90;46.17;;;;;;;;;;5012390;28;20086;-58
2023/12/21 06:11:05;;;;;;;55.23;46.23;;;;;;;;;;5011427;28;20480;-55
2023/12/21 06:13:33;;;;;;;49.63;44.23;;;;;;;;;;5012482;28;20480;-57
2023/12/21 06:15:59;;;;;;;51.23;45.33;;;;;;;;;;5011359;28;20021;-57
2023/12/21 06:18:25;;;;;;;52.73;44.37;;;;;;;;;;5012728;28;20030;-56
2023/12/21 06:20:51;;;;;;;52.83;46.23;;;;;;;;;;5011258;28;20026;-56
2023/12/21 06:23:18;;;;;;;53.67;46.67;;;;;;;;;;5012265;28;20026;-59
2023/12/21 06:25:44;;;;;;;55.90;45.80;;;;;;;;;;5010860;28;20077;-57
2023/12/21 06:28:10;;;;;;;52.20;43.90;;;;;;;;;;5010113;28;20112;-57
2023/12/21 06:30:36;;;;;;;56.33;44.40;;;;;;;;;;5011125;28;20129;-56
2023/12/21 06:33:02;;;;;;;53.60;45.03;;;;;;;;;;5010061;28;20021;-57
2023/12/21 06:35:28;;;;;;;56.23;45.40;;;;;;;;;;5011306;28;20538;-57
2023/12/21 06:37:54;;;;;;;55.90;47.23;;;;;;;;;;5011202;28;20025;-58
2023/12/21 06:40:20;;;;;;;53.87;46.60;;;;;;;;;;5011553;28;20436;-56
2023/12/21 06:42:46;;;;;;;57.13;47.90;;;;;;;;;;5009502;28;20029;-56
2023/12/21 06:45:12;;;;;;;55.63;45.53;;;;;;;;;;5007789;28;20076;-58
2023/12/21 06:47:38;;;;;;;56.30;47.17;;;;;;;;;;5010685;28;20030;-57
2023/12/21 06:50:05;;;;;;;61.73;49.97;;;;;;;;;;5010299;28;20034;-57
2023/12/21 06:52:31;;;;;;;59.67;49.20;;;;;;;;;;5010886;28;20037;-58
2023/12/21 06:54:57;;;;;;;62.43;48.90;;;;;;;;;;5011545;28;20117;-56
2023/12/21 06:57:23;;;;;;;63.60;50.57;;;;;;;;;;5010593;28;20050;-59
2023/12/21 06:59:49;;;;;;;64.60;50.03;;;;;;;;;;5001683;28;20052;-57
2023/12/21 07:02:15;;;;;;;64.70;50.40;;;;;;;;;;5007953;28;20304;-58
2023/12/21 07:04:41;;;;;;;61.20;49.83;;;;;;;;;;5006867;28;20021;-58
2023/12/21 07:07:07;;;;;;;64.13;50.17;;;;;;;;;;5010115;28;20121;-56
2023/12/21 07:09:33;;;;;;;67.20;50.30;;;;;;;;;;5010449;28;20553;-57
2023/12/21 07:12:02;;;;;;;70.03;52.07;;;;;;;;;;5011587;28;20084;-59
2023/12/21 07:14:28;;;;;;;76.47;52.90;;;;;;;;;;5007855;28;20029;-57
2023/12/21 07:16:54;;;;;;;81.70;54.73;;;;;;;;;;5008352;28;20037;-58
2023/12/21 07:19:20;;;;;;;76.10;53.57;;;;;;;;;;5009488;28;20033;-57
2023/12/21 07:21:46;;;;;;;77.33;54.90;;;;;;;;;;5007761;28;20037;-59
2023/12/21 07:24:12;;;;;;;81.20;53.83;;;;;;;;;;5008973;28;20034;-56
2023/12/21 07:26:38;;;;;;;82.47;55.17;;;;;;;;;;5011873;28;20109;-58
2023/12/21 07:29:04;;;;;;;87.00;56.93;;;;;;;;;;5009766;28;20495;-58
2023/12/21 07:31:30;;;;;;;83.27;55.90;;;;;;;;;;5010646;28;20041;-56
2023/12/21 07:33:56;;;;;;;81.90;55.83;;;;;;;;;;5007790;28;20030;-57
2023/12/21 07:36:22;;;;;;;84.70;55.53;;;;;;;;;;5008790;28;20037;-57
2023/12/21 07:38:48;;;;;;;84.07;55.40;;;;;;;;;;5010823;28;20053;-58
2023/12/21 07:41:14;;;;;;;82.33;54.27;;;;;;;;;;5010922;28;20069;-58
2023/12/21 07:43:41;;;;;;;77.50;53.90;;;;;;;;;;5011627;28;20022;-57
2023/12/21 07:46:08;;;;;;;79.40;54.10;;;;;;;;;;5013304;28;20037;-56
2023/12/21 07:48:34;;;;;;;81.30;55.27;;;;;;;;;;5014841;28;20160;-60
2023/12/21 07:51:00;;;;;;;76.77;52.37;;;;;;;;;;5015354;28;20100;-59
2023/12/21 07:53:26;;;;;;;69.60;51.30;;;;;;;;;;5013924;28;20054;-59
2023/12/21 07:55:52;;;;;;;69.83;50.00;;;;;;;;;;5013202;28;20440;-59
2023/12/21 07:58:18;;;;;;;73.87;52.50;;;;;;;;;;5013940;28;20431;-59
2023/12/21 08:00:44;;;;;;;79.57;53.63;;;;;;;;;;5012367;28;20038;-57
2023/12/21 08:03:10;;;;;;;75.63;53.50;;;;;;;;;;5013377;28;20341;-60
2023/12/21 08:05:36;;;;;;;74.40;52.20;;;;;;;;;;5013354;28;20037;-60
2023/12/21 08:08:03;;;;;;;67.73;51.43;;;;;;;;;;5013088;28;20072;-62
2023/12/21 08:10:30;;;;;;;80.70;54.20;;;;;;;;;;5010493;28;20049;-60
2023/12/21 08:12:58;;;;;;;78.47;54.10;;;;;;;;;;5012470;28;20026;-61
2023/12/21 08:15:26;;;;;;;75.23;52.37;;;;;;;;;;5015151;28;20144;-64
2023/12/21 08:17:55;;;;;;;83.10;54.57;;;;;;;;;;5019694;28;20125;-64
2023/12/21 08:20:22;;;;;;;74.30;54.73;;;;;;;;;;5009207;28;20040;-65
2023/12/21 08:22:48;;;;;;;76.07;54.90;;;;;;;;;;5006168;28;20026;-63
2023/12/21 08:25:14;;;;;;;74.70;54.20;;;;;;;;;;5009495;28;20408;-63
2023/12/21 08:27:41;;;;;;;76.43;54.70;;;;;;;;;;5012354;28;20189;-67
2023/12/21 08:30:07;;;;;;;89.50;58.37;;;;;;;;;;5019836;28;20030;-64
2023/12/21 08:32:33;;;;;;;84.43;56.10;;;;;;;;;;5014074;28;20030;-63
2023/12/21 08:35:00;;;;;;;88.60;55.63;;;;;;;;;;5008423;28;20030;-61
2023/12/21 08:37:26;;;;;;;91.47;57.67;;;;;;;;;;5012411;28;20034;-66
2023/12/21 08:39:52;;;;;;;88.63;57.53;;;;;;;;;;5013972;28;20029;-70
2023/12/21 08:42:18;;;;;;;82.87;56.63;;;;;;;;;;5013342;28;20014;-67
2023/12/21 08:44:44;;;;;;;90.90;56.73;;;;;;;;;;5012219;28;20029;-69
2023/12/21 08:47:10;;;;;;;85.20;54.97;;;;;;;;;;5011098;28;20049;-63
2023/12/21 08:49:36;;;;;;;87.77;56.50;;;;;;;;;;5013759;28;20492;-61
2023/12/21 08:52:02;;;;;;;79.43;54.93;;;;;;;;;;5012854;28;20076;-61
2023/12/21 08:54:28;;;;;;;89.93;57.53;;;;;;;;;;5011146;28;20030;-61
2023/12/21 08:56:54;;;;;;;87.83;57.00;;;;;;;;;;5011689;28;20124;-66
2023/12/21 08:59:20;;;;;;;92.53;58.60;;;;;;;;;;5013759;28;20072;-62
2023/12/21 09:01:46;;;;;;;83.53;55.27;;;;;;;;;;5012897;28;20045;-64
2023/12/21 09:04:12;;;;;;;88.17;56.10;;;;;;;;;;5012922;28;20022;-67
2023/12/21 09:06:38;;;;;;;80.60;53.57;;;;;;;;;;5013055;28;20432;-62
2023/12/21 09:09:04;;;;;;;83.47;57.27;;;;;;;;;;5011335;28;20034;-64
2023/12/21 09:11:30;;;;;;;77.33;55.27;;;;;;;;;;5012366;28;20117;-61
2023/12/21 09:13:56;;;;;;;80.83;54.23;;;;;;;;;;5013169;28;20502;-59
2023/12/21 09:16:23;;;;;;;80.60;54.90;;;;;;;;;;5012119;28;20050;-60
2023/12/21 09:18:49;;;;;;;81.53;54.30;;;;;;;;;;5012862;28;20822;-61
2023/12/21 09:21:15;;;;;;;79.57;54.30;;;;;;;;;;5010387;28;20029;-61
2023/12/21 09:23:41;;;;;;;77.27;54.33;;;;;;;;;;5012413;28;20454;-61
2023/12/21 09:26:11;;;;;;;77.10;52.22;;;;;;;;;;5013175;28;20048;-60
2023/12/21 09:28:37;;;;;;;81.43;51.37;;;;;;;;;;5012703;28;20233;-59
2023/12/21 09:31:04;;;;;;;79.00;53.03;;;;;;;;;;5013006;28;20029;-58
2023/12/21 09:33:33;;;;;;;78.43;51.80;;;;;;;;;;5012386;28;20022;-58
2023/12/21 09:35:59;;;;;;;73.83;50.80;;;;;;;;;;5016548;28;20040;-61
2023/12/21 09:38:25;;;;;;;65.97;48.67;;;;;;;;;;5010132;28;20112;-60
2023/12/21 09:40:51;;;;;;;70.77;49.77;;;;;;;;;;5011959;28;20030;-62
2023/12/21 09:43:18;;;;;;;64.30;47.50;;;;;;;;;;5009365;28;20164;-66
2023/12/21 09:45:47;;;;;;;69.07;48.53;;;;;;;;;;5008071;28;20104;-63
2023/12/21 09:48:17;;;;;;;67.70;45.67;;;;;;;;;;5011779;28;20033;-60
2023/12/21 09:50:44;;;;;;;62.25;45.90;;;;;;;;;;5013233;28;20042;-62
2023/12/21 09:53:12;;;;;;;59.25;44.72;;;;;;;;;;5013262;28;20125;-50
2023/12/21 09:55:39;;;;;;;65.22;45.15;;;;;;;;;;5008851;28;20037;-57
2023/12/21 09:58:05;;;;;;;57.90;44.80;;;;;;;;;;5011924;28;20030;-56
2023/12/21 10:00:31;;;;;;;63.78;47.35;;;;;;;;;;5012074;28;20088;-61
2023/12/21 10:06:04;;;;;;;59.28;44.50;;;;;;;;;;5012358;28;20096;-61
2023/12/21 10:08:33;;;;;;;61.67;45.87;;;;;;;;;;5011259;28;20449;-62
2023/12/21 10:10:59;;;;;;;56.28;42.72;;;;;;;;;;5011170;28;20037;-63
2023/12/21 10:13:25;;;;;;;58.97;44.72;;;;;;;;;;5000464;28;20030;-63
2023/12/21 10:16:00;;;;;;;58.20;45.97;;;;;;;;;;5012090;28;20045;-63
2023/12/21 10:18:27;;;;;;;61.20;46.33;;;;;;;;;;5022129;28;20159;-60
2023/12/21 10:20:56;;;;;;;55.50;45.53;;;;;;;;;;5008686;28;20404;-59
2023/12/21 10:23:22;;;;;;;59.10;45.05;;;;;;;;;;4998948;28;20077;-60
2023/12/21 10:25:49;;;;;;;53.37;42.97;;;;;;;;;;5007803;28;20476;-63
2023/12/21 10:28:21;;;;;;;58.28;45.83;;;;;;;;;;5011367;28;20077;-60
2023/12/21 10:30:52;;;;;;;51.22;43.38;;;;;;;;;;5010051;28;20061;-62
2023/12/21 10:33:18;;;;;;;53.00;42.38;;;;;;;;;;5007738;28;20018;-60
2023/12/21 10:35:44;;;;;;;52.95;42.90;;;;;;;;;;5009666;28;20033;-57
2023/12/21 10:38:10;;;;;;;55.47;43.83;;;;;;;;;;5009404;28;20026;-54
2023/12/21 10:40:36;;;;;;;52.03;42.63;;;;;;;;;;5008854;28;20426;-55
2023/12/21 10:43:03;;;;;;;52.80;41.88;;;;;;;;;;5009190;28;20029;-61
2023/12/21 10:45:29;;;;;;;54.92;43.83;;;;;;;;;;5010968;28;20038;-60
2023/12/21 10:47:56;;;;;;;52.75;43.03;;;;;;;;;;5010560;28;20136;-58
2023/12/21 10:50:24;;;;;;;50.03;40.42;;;;;;;;;;5008381;28;20040;-54
2023/12/21 10:52:50;;;;;;;53.67;42.40;;;;;;;;;;5007578;28;20053;-62
2023/12/21 10:55:17;;;;;;;53.15;43.35;;;;;;;;;;5008493;28;20034;-63
2023/12/21 10:57:43;;;;;;;52.10;42.22;;;;;;;;;;5010386;28;20026;-62
2023/12/21 11:03:16;;;;;;;54.13;44.13;;;;;;;;;;5006243;28;20037;-63
2023/12/21 11:05:43;;;;;;;54.40;42.75;;;;;;;;;;5010259;28;20112;-62
2023/12/21 11:08:09;;;;;;;55.38;43.80;;;;;;;;;;5010660;28;20018;-62
2023/12/21 11:10:35;;;;;;;56.60;44.80;;;;;;;;;;5011010;28;20037;-62
2023/12/21 11:13:01;;;;;;;55.65;43.10;;;;;;;;;;5011754;28;20065;-62
2023/12/21 11:15:27;;;;;;;57.63;43.92;;;;;;;;;;5011887;28;20025;-62
2023/12/21 11:17:55;;;;;;;53.88;43.55;;;;;;;;;;5012070;28;20018;-62
2023/12/21 11:20:23;;;;;;;53.95;42.15;;;;;;;;;;5020671;28;20024;-62
2023/12/21 11:22:51;;;;;;;56.78;44.63;;;;;;;;;;5016230;28;20394;-62
2023/12/21 11:25:21;;;;;;;58.28;44.22;;;;;;;;;;5011835;28;20066;-62
2023/12/21 11:27:47;;;;;;;60.05;44.47;;;;;;;;;;5011540;28;20022;-62
2023/12/21 11:30:15;;;;;;;60.13;42.63;;;;;;;;;;5010422;28;20203;-63
2023/12/21 11:32:41;;;;;;;55.97;43.75;;;;;;;;;;5001478;28;20081;-62
2023/12/21 11:35:31;;;;;;;54.80;41.17;;;;;;;;;;5010591;28;20033;-62
2023/12/21 11:37:57;;;;;;;55.85;41.95;;;;;;;;;;5011883;28;20022;-62
2023/12/21 11:40:24;;;;;;;50.03;39.38;;;;;;;;;;5010031;28;20029;-60
2023/12/21 11:42:51;;;;;;;50.45;39.55;;;;;;;;;;5008255;28;20033;-58
2023/12/21 11:45:22;;;;;;;50.95;38.47;;;;;;;;;;5010509;28;20102;-60
2023/12/21 11:47:48;;;;;;;49.72;40.30;;;;;;;;;;5009052;28;20329;-59
2023/12/21 11:50:18;;;;;;;54.33;40.75;;;;;;;;;;5008931;28;20030;-60
2023/12/21 11:52:44;;;;;;;48.22;38.13;;;;;;;;;;5009173;28;20018;-60
2023/12/21 11:55:26;;;;;;;49.88;37.53;;;;;;;;;;5011525;28;20022;-60
2023/12/21 11:58:08;;;;;;;53.45;39.38;;;;;;;;;;5011619;28;20037;-59
2023/12/21 12:00:35;;;;;;;52.35;39.83;;;;;;;;;;5011578;28;20029;-60
2023/12/21 12:03:01;;;;;;;49.72;39.97;;;;;;;;;;5011681;28;20022;-59
2023/12/21 12:05:29;;;;;;;55.15;42.65;;;;;;;;;;5010146;28;20109;-60
2023/12/21 12:07:55;;;;;;;51.97;42.10;;;;;;;;;;5008437;28;20018;-59
2023/12/21 12:10:22;;;;;;;56.25;41.97;;;;;;;;;;5011472;28;20030;-60
2023/12/21 12:12:48;;;;;;;56.22;43.55;;;;;;;;;;5011590;28;20025;-60
2023/12/21 12:15:14;;;;;;;55.60;42.97;;;;;;;;;;5011810;28;20064;-59
2023/12/21 12:17:41;;;;;;;59.72;43.30;;;;;;;;;;5011481;28;20037;-59
2023/12/21 12:20:09;;;;;;;53.65;41.47;;;;;;;;;;5011352;28;20022;-60
2023/12/21 12:22:35;;;;;;;52.45;41.97;;;;;;;;;;5011666;28;20026;-59
2023/12/21 12:25:01;;;;;;;53.13;39.20;;;;;;;;;;5011250;28;20038;-60
2023/12/21 12:27:28;;;;;;;58.03;43.65;;;;;;;;;;5011229;28;20038;-60
2023/12/21 12:29:55;;;;;;;55.17;41.78;;;;;;;;;;5011600;28;20124;-60
2023/12/21 12:32:21;;;;;;;51.55;40.83;;;;;;;;;;5015027;28;20036;-60
2023/12/21 12:34:48;;;;;;;54.10;41.35;;;;;;;;;;5007590;28;20023;-60
2023/12/21 12:37:15;;;;;;;54.95;41.53;;;;;;;;;;5010631;28;20114;-59
2023/12/21 12:39:44;;;;;;;53.67;40.63;;;;;;;;;;5014740;28;20025;-59
2023/12/21 12:42:10;;;;;;;50.60;41.65;;;;;;;;;;5014721;28;20054;-60
2023/12/21 12:44:36;;;;;;;53.90;38.58;;;;;;;;;;5015050;28;20045;-60
2023/12/21 12:47:05;;;;;;;53.22;39.95;;;;;;;;;;5014639;28;20048;-60
2023/12/21 12:49:34;;;;;;;54.97;40.83;;;;;;;;;;5014447;28;20033;-59
2023/12/21 12:52:00;;;;;;;55.97;42.40;;;;;;;;;;5013141;28;20042;-60
2023/12/21 12:54:30;;;;;;;59.30;42.80;;;;;;;;;;5014268;28;20522;-60
2023/12/21 12:56:57;;;;;;;53.70;40.47;;;;;;;;;;5014568;28;20039;-59
2023/12/21 12:59:23;;;;;;;56.75;42.53;;;;;;;;;;5015568;28;20041;-59
2023/12/21 13:01:49;;;;;;;52.25;39.50;;;;;;;;;;5027222;28;20480;-59
2023/12/21 13:04:15;;;;;;;54.15;42.95;;;;;;;;;;5014389;28;20512;-60
2023/12/21 13:06:41;;;;;;;53.78;42.28;;;;;;;;;;5012872;28;20025;-60
2023/12/21 13:09:08;;;;;;;56.38;44.50;;;;;;;;;;5014430;28;20105;-59
2023/12/21 13:11:34;;;;;;;57.25;41.38;;;;;;;;;;5014091;28;20121;-59
2023/12/21 13:14:02;;;;;;;52.63;41.83;;;;;;;;;;5014151;28;20056;-59
2023/12/21 13:16:28;;;;;;;53.70;42.67;;;;;;;;;;5014173;28;20152;-59
2023/12/21 13:18:54;;;;;;;51.05;37.88;;;;;;;;;;5014329;28;20022;-59
2023/12/21 13:21:20;;;;;;;53.85;38.30;;;;;;;;;;5014083;28;20142;-59
2023/12/21 13:23:46;;;;;;;53.80;37.03;;;;;;;;;;5000081;28;20042;-59
2023/12/21 13:26:12;;;;;;;41.80;32.28;;;;;;;;;;5013946;28;20041;-60
2023/12/21 13:28:38;;;;;;;42.88;34.13;;;;;;;;;;5013876;28;20025;-60
2023/12/21 13:31:04;;;;;;;50.88;38.70;;;;;;;;;;5012493;28;20045;-60
2023/12/21 13:33:31;;;;;;;50.28;37.25;;;;;;;;;;5013801;28;20048;-59
2023/12/21 13:35:57;;;;;;;47.75;38.03;;;;;;;;;;5005538;28;20042;-59
2023/12/21 13:38:23;;;;;;;44.65;35.00;;;;;;;;;;5008039;28;20026;-60
2023/12/21 13:40:49;;;;;;;42.75;33.22;;;;;;;;;;5013997;28;20022;-60
2023/12/21 13:43:17;;;;;;;44.67;33.15;;;;;;;;;;5013184;28;20476;-60
2023/12/21 13:45:43;;;;;;;42.75;30.58;;;;;;;;;;5013753;28;20125;-60
2023/12/21 13:48:10;;;;;;;40.70;30.13;;;;;;;;;;5013546;28;20459;-60
2023/12/21 13:50:36;;;;;;;40.47;29.38;;;;;;;;;;5013392;28;20025;-60
2023/12/21 13:53:02;;;;;;;40.67;29.67;;;;;;;;;;5010603;28;20022;-60
2023/12/21 13:55:29;;;;;;;44.65;31.35;;;;;;;;;;5013426;28;20057;-60
2023/12/21 13:57:55;;;;;;;41.28;29.05;;;;;;;;;;5013202;28;20071;-60
2023/12/21 14:00:22;;;;;;;43.70;29.30;;;;;;;;;;5009464;28;20061;-60
2023/12/21 14:02:49;;;;;;;40.08;29.00;;;;;;;;;;5005953;28;20503;-60
2023/12/21 14:05:15;;;;;;;39.10;28.77;;;;;;;;;;5013145;28;20060;-60
2023/12/21 14:07:41;;;;;;;42.03;29.50;;;;;;;;;;5011758;28;20026;-60
2023/12/21 14:10:07;;;;;;;40.53;29.70;;;;;;;;;;5012779;28;20168;-60
2023/12/21 14:12:34;;;;;;;44.88;32.25;;;;;;;;;;5013094;28;20026;-60
2023/12/21 14:15:00;;;;;;;39.50;30.15;;;;;;;;;;5012965;28;20026;-60
2023/12/21 14:17:26;;;;;;;40.42;30.10;;;;;;;;;;5013021;28;20139;-59
2023/12/21 14:19:52;;;;;;;41.70;31.17;;;;;;;;;;5025887;28;20083;-60
2023/12/21 14:22:18;;;;;;;35.65;27.60;;;;;;;;;;5009316;28;20055;-59
2023/12/21 14:24:44;;;;;;;37.45;27.90;;;;;;;;;;5012788;28;20408;-60
2023/12/21 14:27:10;;;;;;;44.33;29.08;;;;;;;;;;5012935;28;20057;-60